createdAt,value
2018-09-18T00:00:13.999Z,70.30
2018-09-18T00:02:43.020Z,70.60
2018-09-18T00:05:12.161Z,70.90
2018-09-18T00:07:41.175Z,70.60
2018-09-18T00:10:09.991Z,71.70
2018-09-18T00:12:39.104Z,71.00
2018-09-18T00:15:07.652Z,70.30
2018-09-18T00:17:36.423Z,70.90
2018-09-18T00:20:05.001Z,70.60
2018-09-18T00:22:33.832Z,71.30
2018-09-18T00:25:02.399Z,70.80
2018-09-18T00:27:32.219Z,70.70
2018-09-18T00:30:01.075Z,70.40
2018-09-18T00:32:29.925Z,70.40
2018-09-18T00:34:58.926Z,70.10
2018-09-18T00:37:27.723Z,70.30
2018-09-18T00:39:59.670Z,70.60
2018-09-18T00:42:29.752Z,70.70
2018-09-18T00:44:58.373Z,70.80
2018-09-18T00:47:27.546Z,70.40
2018-09-18T00:49:56.625Z,70.00
2018-09-18T00:52:25.424Z,70.20
2018-09-18T00:54:54.552Z,70.00
2018-09-18T00:57:23.556Z,70.20
2018-09-18T00:59:52.596Z,70.30
2018-09-18T01:02:21.320Z,70.00
2018-09-18T01:04:50.462Z,70.10
2018-09-18T01:07:19.352Z,71.60
2018-09-18T01:09:48.099Z,70.10
2018-09-18T01:12:16.856Z,70.30
2018-09-18T01:14:45.968Z,71.00
2018-09-18T01:17:14.809Z,71.50
2018-09-18T01:19:43.665Z,70.90
2018-09-18T01:22:13.277Z,70.90
2018-09-18T01:24:42.244Z,70.80
2018-09-18T01:27:10.968Z,71.30
2018-09-18T01:29:39.796Z,70.90
2018-09-18T01:32:08.621Z,71.00
2018-09-18T01:34:37.578Z,71.30
2018-09-18T01:37:06.586Z,71.30
2018-09-18T01:39:36.573Z,71.00
2018-09-18T01:42:05.917Z,72.00
2018-09-18T01:44:34.377Z,71.50
2018-09-18T01:47:03.334Z,71.20
2018-09-18T01:49:31.872Z,71.10
2018-09-18T01:52:00.877Z,73.00
2018-09-18T01:54:29.825Z,71.60
2018-09-18T01:56:58.660Z,71.60
2018-09-18T01:59:27.400Z,71.00
2018-09-18T02:01:56.109Z,70.80
2018-09-18T02:04:24.956Z,71.30
2018-09-18T02:06:54.158Z,71.10
2018-09-18T02:09:23.297Z,71.10
2018-09-18T02:11:52.032Z,70.80
2018-09-18T02:14:21.274Z,71.10
2018-09-18T02:16:49.825Z,71.60
2018-09-18T02:19:18.710Z,71.40
2018-09-18T02:21:47.442Z,70.80
2018-09-18T02:24:16.159Z,72.00
2018-09-18T02:26:46.026Z,71.30
2018-09-18T02:29:14.441Z,70.90
2018-09-18T02:31:43.210Z,71.10
2018-09-18T02:34:11.944Z,71.60
2018-09-18T02:36:40.771Z,71.00
2018-09-18T02:39:11.283Z,71.10
2018-09-18T02:41:39.689Z,71.30
2018-09-18T02:45:37.923Z,71.40
2018-09-18T02:48:06.656Z,71.60
2018-09-18T02:50:35.664Z,71.30
2018-09-18T02:53:04.637Z,70.90
2018-09-18T02:55:33.598Z,71.80
2018-09-18T02:58:03.256Z,71.10
2018-09-18T03:00:32.754Z,71.20
2018-09-18T03:03:01.201Z,71.60
2018-09-18T03:06:54.409Z,71.00
2018-09-18T03:09:22.977Z,71.30
2018-09-18T03:11:51.941Z,71.80
2018-09-18T03:14:20.592Z,71.60
2018-09-18T03:16:49.641Z,72.00
2018-09-18T03:19:18.462Z,71.50
2018-09-18T03:21:47.204Z,71.90
2018-09-18T03:24:15.882Z,72.50
2018-09-18T03:26:44.800Z,72.30
2018-09-18T03:29:13.534Z,72.00
2018-09-18T03:31:42.368Z,72.30
2018-09-18T03:34:11.084Z,72.40
2018-09-18T03:36:39.729Z,72.40
2018-09-18T03:39:08.893Z,72.10
2018-09-18T03:41:37.314Z,71.70
2018-09-18T03:44:06.219Z,72.30
2018-09-18T03:46:35.289Z,72.00
2018-09-18T03:49:04.329Z,71.40
2018-09-18T03:51:34.289Z,72.70
2018-09-18T03:54:04.312Z,72.30
2018-09-18T03:56:33.429Z,71.90
2018-09-18T03:59:02.563Z,71.80
2018-09-18T04:01:31.300Z,71.60
2018-09-18T04:04:00.049Z,71.80
2018-09-18T04:06:29.006Z,71.60
2018-09-18T04:08:57.860Z,72.10
2018-09-18T04:11:26.869Z,71.90
2018-09-18T04:13:55.803Z,71.90
2018-09-18T04:16:24.779Z,72.70
2018-09-18T04:18:53.102Z,72.60
2018-09-18T04:21:26.177Z,72.30
2018-09-18T04:23:55.003Z,72.50
2018-09-18T04:26:23.720Z,74.20
2018-09-18T04:28:52.702Z,73.20
2018-09-18T04:31:22.221Z,73.40
2018-09-18T04:33:50.828Z,72.60
2018-09-18T04:36:20.080Z,72.90
2018-09-18T04:38:49.357Z,73.50
2018-09-18T04:41:18.245Z,72.80
2018-09-18T04:43:47.006Z,73.10
2018-09-18T04:46:15.741Z,74.00
2018-09-18T04:48:45.020Z,74.40
2018-09-18T04:51:13.842Z,74.70
2018-09-18T04:53:42.589Z,74.30
2018-09-18T04:56:11.417Z,74.40
2018-09-18T04:58:40.166Z,74.40
2018-09-18T05:01:09.160Z,73.70
2018-09-18T05:03:38.191Z,74.60
2018-09-18T05:06:06.893Z,74.50
2018-09-18T05:08:35.645Z,74.80
2018-09-18T05:11:04.351Z,74.70
2018-09-18T05:13:33.172Z,75.00
2018-09-18T05:16:02.007Z,74.40
2018-09-18T05:18:30.853Z,74.50
2018-09-18T05:21:00.600Z,74.30
2018-09-18T05:23:29.521Z,74.60
2018-09-18T05:25:58.439Z,74.50
2018-09-18T05:28:27.488Z,74.20
2018-09-18T05:30:56.109Z,74.30
2018-09-18T05:33:24.745Z,74.90
2018-09-18T05:35:53.784Z,74.50
2018-09-18T05:38:22.817Z,74.70
2018-09-18T05:40:51.548Z,74.40
2018-09-18T05:43:20.399Z,74.60
2018-09-18T05:45:49.264Z,74.50
2018-09-18T05:48:18.495Z,75.40
2018-09-18T05:50:47.390Z,75.30
2018-09-18T05:53:16.202Z,74.90
2018-09-18T05:57:09.628Z,74.90
2018-09-18T05:59:38.296Z,75.30
2018-09-18T06:02:07.293Z,75.00
2018-09-18T06:04:36.022Z,76.50
2018-09-18T06:07:04.761Z,75.40
2018-09-18T06:09:33.588Z,75.30
2018-09-18T06:12:02.374Z,75.40
2018-09-18T06:14:31.010Z,75.20
2018-09-18T06:16:59.949Z,75.40
2018-09-18T06:19:28.985Z,75.70
2018-09-18T06:21:57.605Z,75.20
2018-09-18T06:24:26.321Z,75.80
2018-09-18T06:26:56.220Z,75.80
2018-09-18T06:29:24.812Z,75.50
2018-09-18T06:31:53.527Z,76.20
2018-09-18T06:34:22.366Z,75.60
2018-09-18T06:36:51.111Z,76.00
2018-09-18T06:39:34.178Z,76.60
2018-09-18T06:42:03.255Z,76.30
2018-09-18T06:44:32.088Z,76.30
2018-09-18T06:47:00.824Z,76.40
2018-09-18T06:49:29.789Z,75.90
2018-09-18T06:51:58.609Z,76.70
2018-09-18T06:54:27.499Z,76.00
2018-09-18T06:56:55.972Z,75.60
2018-09-18T06:59:24.688Z,76.10
2018-09-18T07:01:53.608Z,75.30
2018-09-18T07:04:22.523Z,75.30
2018-09-18T07:06:51.320Z,76.10
2018-09-18T07:09:20.557Z,74.50
2018-09-18T07:11:49.284Z,75.30
2018-09-18T07:14:18.060Z,74.30
2018-09-18T07:16:47.034Z,74.20
2018-09-18T07:19:16.713Z,73.90
2018-09-18T07:21:46.133Z,73.70
2018-09-18T07:24:14.760Z,73.30
2018-09-18T07:26:43.940Z,73.40
2018-09-18T07:29:12.857Z,72.60
2018-09-18T07:31:41.573Z,72.50
2018-09-18T07:34:10.764Z,72.70
2018-09-18T07:36:39.688Z,72.20
2018-09-18T07:39:10.156Z,72.00
2018-09-18T07:41:39.213Z,72.00
2018-09-18T07:44:08.489Z,71.20
2018-09-18T07:46:36.808Z,69.60
2018-09-18T07:49:06.005Z,70.50
2018-09-18T07:51:35.582Z,69.20
2018-09-18T07:54:04.497Z,69.10
2018-09-18T07:56:33.698Z,68.90
2018-09-18T07:59:02.982Z,68.80
2018-09-18T08:01:32.409Z,68.00
2018-09-18T08:04:01.443Z,68.10
2018-09-18T08:06:30.237Z,68.60
2018-09-18T08:08:59.278Z,67.80
2018-09-18T08:11:28.311Z,67.70
2018-09-18T08:13:57.174Z,66.90
2018-09-18T08:16:26.466Z,67.60
2018-09-18T08:18:55.390Z,67.30
2018-09-18T08:21:23.606Z,67.30
2018-09-18T08:23:52.537Z,66.80
2018-09-18T08:26:21.602Z,66.10
2018-09-18T08:28:50.739Z,66.40
2018-09-18T08:31:19.617Z,67.10
2018-09-18T08:33:48.268Z,67.00
2018-09-18T08:36:17.141Z,67.00
2018-09-18T08:38:46.105Z,66.50
2018-09-18T08:41:14.927Z,66.70
2018-09-18T08:43:43.999Z,66.50
2018-09-18T08:46:12.396Z,67.90
2018-09-18T08:48:47.213Z,66.80
2018-09-18T08:51:15.555Z,67.00
2018-09-18T08:53:44.074Z,67.30
2018-09-18T08:56:12.981Z,66.70
2018-09-18T08:58:41.861Z,66.90
2018-09-18T09:02:34.967Z,67.20
2018-09-18T09:05:03.417Z,67.30
2018-09-18T09:07:32.336Z,66.80
2018-09-18T09:10:01.710Z,66.80
2018-09-18T09:12:30.079Z,66.70
2018-09-18T09:14:58.832Z,67.50
2018-09-18T09:17:27.501Z,67.10
2018-09-18T09:19:57.049Z,66.30
2018-09-18T09:22:26.123Z,67.10
2018-09-18T09:24:54.970Z,66.80
2018-09-18T09:27:24.584Z,66.70
2018-09-18T09:29:52.807Z,67.40
2018-09-18T09:32:21.014Z,67.00
2018-09-18T09:34:50.513Z,67.30
2018-09-18T09:37:19.372Z,67.10
2018-09-18T09:39:47.949Z,67.40
2018-09-18T09:42:16.814Z,67.20
2018-09-18T09:44:45.637Z,67.40
2018-09-18T09:47:14.739Z,66.80
2018-09-18T09:49:43.751Z,67.30
2018-09-18T09:52:12.662Z,67.60
2018-09-18T09:54:41.378Z,66.90
2018-09-18T09:57:11.417Z,66.80
2018-09-18T09:59:40.189Z,66.00
2018-09-18T10:02:14.338Z,66.50
2018-09-18T10:04:42.749Z,66.90
2018-09-18T10:08:40.838Z,67.50
2018-09-18T10:11:09.549Z,67.40
2018-09-18T10:13:38.516Z,66.30
2018-09-18T10:16:07.612Z,66.60
2018-09-18T10:18:36.108Z,66.70
2018-09-18T10:21:04.848Z,64.90
2018-09-18T10:23:34.800Z,65.30
2018-09-18T10:26:03.836Z,65.50
2018-09-18T10:28:32.341Z,65.50
2018-09-18T10:32:26.551Z,65.40
2018-09-18T10:34:55.020Z,65.80
2018-09-18T10:37:23.590Z,65.70
2018-09-18T10:39:52.016Z,65.00
2018-09-18T10:42:21.140Z,65.30
2018-09-18T10:44:50.174Z,65.00
2018-09-18T10:47:19.307Z,64.60
2018-09-18T10:49:48.422Z,65.70
2018-09-18T10:52:17.577Z,65.00
2018-09-18T10:54:46.449Z,64.50
2018-09-18T10:57:15.524Z,64.70
2018-09-18T10:59:44.256Z,64.40
2018-09-18T11:02:13.219Z,64.80
2018-09-18T11:04:41.900Z,64.90
2018-09-18T11:07:10.697Z,64.20
2018-09-18T11:09:39.494Z,63.80
2018-09-18T11:12:08.342Z,63.90
2018-09-18T11:14:37.382Z,64.70
2018-09-18T11:17:06.262Z,63.80
2018-09-18T11:19:38.394Z,65.50
2018-09-18T11:22:07.249Z,64.70
2018-09-18T11:24:35.801Z,64.60
2018-09-18T11:27:04.605Z,64.40
2018-09-18T11:29:33.565Z,63.80
2018-09-18T11:32:02.184Z,63.20
2018-09-18T11:34:31.286Z,64.10
2018-09-18T11:37:00.640Z,63.80
2018-09-18T11:39:29.613Z,64.20
2018-09-18T11:41:58.431Z,64.20
2018-09-18T11:44:27.721Z,63.10
2018-09-18T11:46:57.653Z,63.60
2018-09-18T11:49:26.465Z,63.70
2018-09-18T11:51:55.229Z,64.40
2018-09-18T11:54:24.158Z,64.90
2018-09-18T11:56:53.204Z,65.00
2018-09-18T11:59:22.242Z,64.50
2018-09-18T12:01:51.319Z,65.20
2018-09-18T12:04:20.344Z,64.60
2018-09-18T12:06:49.307Z,63.90
2018-09-18T12:09:18.043Z,64.30
2018-09-18T12:11:47.007Z,64.30
2018-09-18T12:14:16.756Z,63.40
2018-09-18T12:16:45.480Z,62.90
2018-09-18T12:19:14.245Z,62.80
2018-09-18T12:21:43.255Z,64.10
2018-09-18T12:24:12.164Z,61.90
2018-09-18T12:26:41.030Z,62.80
2018-09-18T12:29:09.773Z,63.10
2018-09-18T12:31:39.726Z,63.00
2018-09-18T12:34:08.753Z,61.60
2018-09-18T12:39:12.956Z,61.90
2018-09-18T12:41:41.503Z,61.20
2018-09-18T12:44:10.059Z,62.60
2018-09-18T12:46:38.773Z,62.20
2018-09-18T12:49:07.502Z,61.50
2018-09-18T12:51:36.456Z,61.40
2018-09-18T12:54:05.084Z,60.90
2018-09-18T12:56:36.759Z,59.00
2018-09-18T12:59:09.920Z,59.20
2018-09-18T13:01:39.425Z,60.00
2018-09-18T13:04:07.889Z,59.20
2018-09-18T13:06:36.666Z,60.10
2018-09-18T13:09:07.986Z,58.20
2018-09-18T13:11:37.382Z,58.80
2018-09-18T13:14:06.265Z,59.80
2018-09-18T13:16:34.826Z,59.60
2018-09-18T13:19:03.584Z,60.50
2018-09-18T13:21:33.333Z,62.00
2018-09-18T13:24:02.072Z,63.50
2018-09-18T13:26:32.245Z,63.40
2018-09-18T13:29:00.584Z,64.20
2018-09-18T13:31:29.445Z,65.00
2018-09-18T13:33:58.757Z,64.70
2018-09-18T13:36:27.897Z,64.00
2018-09-18T13:38:56.702Z,63.90
2018-09-18T13:41:25.353Z,62.40
2018-09-18T13:43:55.057Z,62.80
2018-09-18T13:46:23.771Z,62.10
2018-09-18T13:48:52.415Z,62.30
2018-09-18T13:51:21.032Z,62.10
2018-09-18T13:53:49.661Z,62.10
2018-09-18T13:56:18.556Z,61.50
2018-09-18T14:01:17.275Z,61.90
2018-09-18T14:03:46.145Z,62.70
2018-09-18T14:06:14.885Z,62.10
2018-09-18T14:08:43.756Z,62.30
2018-09-18T14:11:12.380Z,62.50
2018-09-18T14:13:41.200Z,62.20
2018-09-18T14:16:09.904Z,62.20
2018-09-18T14:18:38.513Z,62.80
2018-09-18T14:21:07.762Z,62.80
2018-09-18T14:23:36.991Z,62.60
2018-09-18T14:26:05.796Z,62.10
2018-09-18T14:28:34.573Z,61.50
2018-09-18T14:31:04.391Z,62.50
2018-09-18T14:33:32.965Z,62.30
2018-09-18T14:36:01.590Z,62.40
2018-09-18T14:38:30.480Z,62.80
2018-09-18T14:40:58.997Z,63.00
2018-09-18T14:43:27.561Z,63.10
2018-09-18T14:45:56.306Z,63.70
2018-09-18T14:48:25.003Z,62.60
2018-09-18T14:50:53.707Z,62.60
2018-09-18T14:53:22.908Z,63.30
2018-09-18T14:55:51.150Z,63.30
2018-09-18T14:58:19.910Z,63.80
2018-09-18T15:00:48.564Z,64.10
2018-09-18T15:03:17.190Z,64.30
2018-09-18T15:05:45.931Z,64.40
2018-09-18T15:08:15.041Z,64.50
2018-09-18T15:10:43.557Z,65.10
2018-09-18T15:13:12.157Z,64.80
2018-09-18T15:15:41.042Z,65.00
2018-09-18T15:18:09.075Z,65.00
2018-09-18T15:20:38.354Z,65.00
2018-09-18T15:23:07.126Z,64.50
2018-09-18T15:25:35.940Z,63.70
2018-09-18T15:28:05.750Z,62.70
2018-09-18T15:30:35.794Z,62.90
2018-09-18T15:33:04.453Z,63.10
2018-09-18T15:35:32.968Z,63.50
2018-09-18T15:38:02.817Z,63.10
2018-09-18T15:40:31.719Z,62.70
2018-09-18T15:43:01.007Z,62.20
2018-09-18T15:45:29.665Z,62.40
2018-09-18T15:47:58.261Z,62.80
2018-09-18T15:50:27.014Z,63.00
2018-09-18T15:52:55.564Z,63.10
2018-09-18T15:55:24.314Z,63.50
2018-09-18T15:57:52.844Z,63.60
2018-09-18T16:00:21.932Z,62.60
2018-09-18T16:02:50.136Z,62.40
2018-09-18T16:05:18.852Z,62.90
2018-09-18T16:07:47.594Z,63.60
2018-09-18T16:10:16.380Z,62.60
2018-09-18T16:14:10.042Z,63.80
2018-09-18T16:16:39.041Z,62.70
2018-09-18T16:19:08.119Z,63.70
2018-09-18T16:21:37.377Z,63.90
2018-09-18T16:24:05.918Z,64.10
2018-09-18T16:26:34.792Z,64.00
2018-09-18T16:29:03.877Z,65.00
2018-09-18T16:31:33.325Z,65.30
2018-09-18T16:34:02.109Z,65.40
2018-09-18T16:36:30.896Z,65.00
2018-09-18T16:38:59.433Z,65.30
2018-09-18T16:41:28.361Z,65.00
2018-09-18T16:43:57.304Z,65.40
2018-09-18T16:46:25.975Z,65.90
2018-09-18T16:48:54.822Z,66.60
2018-09-18T16:51:24.777Z,66.90
2018-09-18T16:53:53.397Z,67.60
2018-09-18T16:56:22.056Z,68.80
2018-09-18T16:58:50.637Z,68.50
2018-09-18T17:01:19.343Z,69.20
2018-09-18T17:03:48.116Z,69.50
2018-09-18T17:06:16.767Z,70.90
2018-09-18T17:08:45.650Z,71.00
2018-09-18T17:11:14.404Z,71.50
2018-09-18T17:13:43.166Z,71.30
2018-09-18T17:16:11.793Z,71.80
2018-09-18T17:18:41.796Z,71.80
2018-09-18T17:21:11.139Z,72.10
2018-09-18T17:23:39.964Z,73.00
2018-09-18T17:26:08.623Z,72.90
2018-09-18T17:28:37.807Z,73.30
2018-09-18T17:31:09.872Z,73.90
2018-09-18T17:36:24.817Z,74.50
2018-09-18T17:38:53.537Z,75.30
2018-09-18T17:41:25.443Z,75.20
2018-09-18T17:43:54.168Z,74.60
2018-09-18T17:46:22.600Z,75.40
2018-09-18T17:48:51.485Z,75.80
2018-09-18T17:51:21.022Z,75.50
2018-09-18T17:53:49.780Z,75.70
2018-09-18T17:56:18.712Z,77.00
2018-09-18T17:58:47.436Z,76.10
2018-09-18T18:01:16.070Z,76.70
2018-09-18T18:03:44.898Z,76.50
2018-09-18T18:06:13.805Z,76.40
2018-09-18T18:08:42.331Z,76.70
2018-09-18T18:11:11.161Z,76.80
2018-09-18T18:13:40.096Z,77.00
2018-09-18T18:16:08.777Z,77.20
2018-09-18T18:18:39.029Z,77.60
2018-09-18T18:21:08.803Z,77.90
2018-09-18T18:23:37.166Z,77.90
2018-09-18T18:26:06.070Z,78.40
2018-09-18T18:28:34.680Z,77.80
2018-09-18T18:31:03.473Z,78.20
2018-09-18T18:33:32.296Z,79.60
2018-09-18T18:36:00.890Z,78.80
2018-09-18T18:38:29.624Z,79.20
2018-09-18T18:40:59.001Z,79.50
2018-09-18T18:43:28.146Z,79.60
2018-09-18T18:45:56.859Z,79.50
2018-09-18T18:48:25.713Z,79.50
2018-09-18T18:50:54.387Z,79.80
2018-09-18T18:53:23.146Z,79.60
2018-09-18T18:55:51.911Z,80.10
2018-09-18T18:58:20.670Z,80.40
2018-09-18T19:00:49.578Z,81.10
2018-09-18T19:03:18.329Z,80.40
2018-09-18T19:05:48.038Z,81.10
2018-09-18T19:08:16.861Z,80.80
2018-09-18T19:10:45.503Z,80.90
2018-09-18T19:13:15.591Z,80.10
2018-09-18T19:15:44.257Z,81.40
2018-09-18T19:18:13.037Z,82.00
2018-09-18T19:20:41.671Z,81.60
2018-09-18T19:23:10.382Z,82.00
2018-09-18T19:25:39.380Z,81.50
2018-09-18T19:28:08.248Z,81.70
2018-09-18T19:30:42.429Z,82.30
2018-09-18T19:33:13.291Z,83.00
2018-09-18T19:35:41.664Z,82.70
2018-09-18T19:38:10.689Z,82.10
2018-09-18T19:40:40.651Z,83.10
2018-09-18T19:43:09.008Z,82.90
2018-09-18T19:45:38.846Z,82.80
2018-09-18T19:48:07.610Z,83.40
2018-09-18T19:50:36.541Z,83.00
2018-09-18T19:53:05.173Z,83.90
2018-09-18T19:55:34.080Z,83.60
2018-09-18T19:58:02.809Z,84.10
2018-09-18T20:00:32.545Z,83.00
2018-09-18T20:03:01.449Z,83.30
2018-09-18T20:05:30.095Z,84.70
2018-09-18T20:07:58.723Z,83.80
2018-09-18T20:10:27.662Z,84.20
2018-09-18T20:12:56.223Z,85.20
2018-09-18T20:15:25.073Z,85.20
2018-09-18T20:17:55.101Z,86.00
2018-09-18T20:20:23.404Z,85.70
2018-09-18T20:22:52.537Z,86.00
2018-09-18T20:25:21.298Z,85.80
2018-09-18T20:27:50.133Z,85.20
2018-09-18T20:30:18.688Z,85.40
2018-09-18T20:32:48.665Z,84.90
2018-09-18T20:35:20.012Z,85.30
2018-09-18T20:37:50.064Z,84.40
2018-09-18T20:40:18.605Z,85.20
2018-09-18T20:42:48.490Z,84.20
2018-09-18T20:45:18.624Z,85.10
2018-09-18T20:47:46.952Z,85.10
2018-09-18T20:50:15.989Z,85.30
2018-09-18T20:52:44.604Z,84.40
2018-09-18T20:55:13.808Z,84.60
2018-09-18T20:57:43.685Z,83.90
2018-09-18T21:00:12.399Z,84.90
2018-09-18T21:02:41.362Z,84.50
2018-09-18T21:05:10.132Z,84.70
2018-09-18T21:07:40.043Z,84.90
2018-09-18T21:10:09.476Z,85.30
2018-09-18T21:12:38.515Z,84.50
2018-09-18T21:15:08.169Z,84.00
2018-09-18T21:17:36.781Z,84.50
2018-09-18T21:20:05.692Z,85.00
2018-09-18T21:22:34.726Z,84.60
2018-09-18T21:25:12.082Z,85.10
2018-09-18T21:27:41.820Z,84.60
2018-09-18T21:30:11.032Z,85.00
2018-09-18T21:32:40.021Z,86.10
2018-09-18T21:35:08.784Z,85.20
2018-09-18T21:37:37.121Z,84.20
2018-09-18T21:40:05.857Z,85.00
2018-09-18T21:42:34.690Z,84.70
2018-09-18T21:45:03.651Z,85.30
2018-09-18T21:47:32.154Z,84.40
2018-09-18T21:50:00.903Z,84.40
2018-09-18T21:52:30.009Z,83.90
2018-09-18T21:54:58.864Z,84.50
2018-09-18T21:57:27.395Z,84.50
2018-09-18T21:59:56.254Z,84.60
2018-09-18T22:02:25.078Z,85.70
2018-09-18T22:04:53.728Z,85.20
2018-09-18T22:07:22.461Z,84.90
2018-09-18T22:09:51.168Z,85.00
2018-09-18T22:12:20.047Z,86.00
2018-09-18T22:14:48.664Z,85.50
2018-09-18T22:17:17.625Z,85.30
2018-09-18T22:19:46.378Z,84.40
2018-09-18T22:22:15.128Z,84.40
2018-09-18T22:24:44.071Z,84.90
2018-09-18T22:27:12.536Z,84.60
2018-09-18T22:29:41.168Z,85.20
2018-09-18T22:32:10.410Z,84.90
2018-09-18T22:34:39.380Z,85.10
2018-09-18T22:37:08.184Z,85.00
2018-09-18T22:39:36.787Z,84.50
2018-09-18T22:42:05.484Z,85.00
2018-09-18T22:44:34.294Z,84.10
2018-09-18T22:47:03.080Z,85.00
2018-09-18T22:49:31.935Z,84.20
2018-09-18T22:52:00.671Z,84.20
2018-09-18T22:54:29.551Z,84.50
2018-09-18T22:56:58.006Z,85.20
2018-09-18T22:59:26.792Z,84.40
2018-09-18T23:01:55.503Z,84.90
2018-09-18T23:04:24.353Z,85.30
2018-09-18T23:06:53.095Z,85.30
2018-09-18T23:09:21.900Z,84.70
2018-09-18T23:11:50.621Z,84.90
2018-09-18T23:14:19.336Z,84.70
2018-09-18T23:18:12.577Z,84.90
2018-09-18T23:20:41.303Z,84.00
2018-09-18T23:23:10.291Z,84.40
2018-09-18T23:25:40.104Z,85.00
2018-09-18T23:28:08.585Z,84.10
2018-09-18T23:30:37.357Z,85.00
2018-09-18T23:34:31.085Z,84.60
2018-09-18T23:36:59.799Z,84.30
2018-09-18T23:39:28.423Z,84.10
2018-09-18T23:41:57.157Z,84.00
2018-09-18T23:44:25.871Z,84.80
2018-09-18T23:46:55.073Z,84.10
2018-09-18T23:49:23.609Z,84.90
2018-09-18T23:51:52.445Z,84.70
2018-09-18T23:54:21.356Z,84.30
2018-09-18T23:56:50.182Z,84.00
2018-09-18T23:59:19.185Z,84.50
